sensor_id;sensor_type;location;lat;lon;timestamp;pressure;altitude;pressure_sealevel;temperature
73662;BMP280;61956;52.540;13.382;2023-03-22T00:00:26;97416.66;;;10.80
73662;BMP280;61956;52.540;13.382;2023-03-22T00:02:56;96842.59;;;10.74
73662;BMP280;61956;52.540;13.382;2023-03-22T00:05:28;96843.97;;;10.71
73662;BMP280;61956;52.540;13.382;2023-03-22T00:07:57;97450.81;;;10.73
73662;BMP280;61956;52.540;13.382;2023-03-22T00:10:30;97359.06;;;10.74
73662;BMP280;61956;52.540;13.382;2023-03-22T00:12:59;96862.03;;;10.68
73662;BMP280;61956;52.540;13.382;2023-03-22T00:15:29;97207.38;;;10.68
73662;BMP280;61956;52.540;13.382;2023-03-22T00:18:00;97612.41;;;10.69
73662;BMP280;61956;52.540;13.382;2023-03-22T00:20:33;96478.06;;;10.62
73662;BMP280;61956;52.540;13.382;2023-03-22T00:23:03;95295.56;;;10.50
73662;BMP280;61956;52.540;13.382;2023-03-22T00:25:33;94940.50;;;10.45
73662;BMP280;61956;52.540;13.382;2023-03-22T00:28:03;94404.88;;;10.37
73662;BMP280;61956;52.540;13.382;2023-03-22T00:30:33;94569.38;;;10.35
73662;BMP280;61956;52.540;13.382;2023-03-22T00:33:05;94105.91;;;10.29
73662;BMP280;61956;52.540;13.382;2023-03-22T00:35:37;94534.28;;;10.30
73662;BMP280;61956;52.540;13.382;2023-03-22T00:38:07;94987.81;;;10.31
73662;BMP280;61956;52.540;13.382;2023-03-22T00:40:39;95520.25;;;10.34
73662;BMP280;61956;52.540;13.382;2023-03-22T00:43:09;97020.69;;;10.43
73662;BMP280;61956;52.540;13.382;2023-03-22T00:45:39;97670.47;;;10.50
73662;BMP280;61956;52.540;13.382;2023-03-22T00:48:10;97999.69;;;10.54
73662;BMP280;61956;52.540;13.382;2023-03-22T00:50:42;97314.78;;;10.50
73662;BMP280;61956;52.540;13.382;2023-03-22T00:53:12;97339.88;;;10.49
73662;BMP280;61956;52.540;13.382;2023-03-22T00:55:41;96242.31;;;10.43
73662;BMP280;61956;52.540;13.382;2023-03-22T00:58:11;96247.38;;;10.39
73662;BMP280;61956;52.540;13.382;2023-03-22T01:00:40;96470.06;;;10.39
73662;BMP280;61956;52.540;13.382;2023-03-22T01:03:10;96666.84;;;10.39
73662;BMP280;61956;52.540;13.382;2023-03-22T01:05:44;96424.53;;;10.38
73662;BMP280;61956;52.540;13.382;2023-03-22T01:08:15;96073.09;;;10.35
73662;BMP280;61956;52.540;13.382;2023-03-22T01:10:44;97036.13;;;10.40
73662;BMP280;61956;52.540;13.382;2023-03-22T01:13:14;95287.63;;;10.29
73662;BMP280;61956;52.540;13.382;2023-03-22T01:15:43;95573.41;;;10.28
73662;BMP280;61956;52.540;13.382;2023-03-22T01:18:13;95376.34;;;10.26
73662;BMP280;61956;52.540;13.382;2023-03-22T01:20:45;95695.72;;;10.25
73662;BMP280;61956;52.540;13.382;2023-03-22T01:23:17;97199.13;;;10.36
73662;BMP280;61956;52.540;13.382;2023-03-22T01:25:46;97422.06;;;10.40
73662;BMP280;61956;52.540;13.382;2023-03-22T01:28:15;97401.34;;;10.40
73662;BMP280;61956;52.540;13.382;2023-03-22T01:30:45;97778.19;;;10.43
73662;BMP280;61956;52.540;13.382;2023-03-22T01:33:17;98399.94;;;10.48
73662;BMP280;61956;52.540;13.382;2023-03-22T01:35:50;98413.38;;;10.50
73662;BMP280;61956;52.540;13.382;2023-03-22T01:38:23;97633.53;;;10.45
73662;BMP280;61956;52.540;13.382;2023-03-22T01:40:56;96792.25;;;10.38
73662;BMP280;61956;52.540;13.382;2023-03-22T01:43:28;96336.75;;;10.33
73662;BMP280;61956;52.540;13.382;2023-03-22T01:45:58;96428.44;;;10.32
73662;BMP280;61956;52.540;13.382;2023-03-22T01:48:31;96505.34;;;10.31
73662;BMP280;61956;52.540;13.382;2023-03-22T01:51:09;96320.38;;;10.29
73662;BMP280;61956;52.540;13.382;2023-03-22T01:54:19;96762.44;;;10.32
73662;BMP280;61956;52.540;13.382;2023-03-22T01:56:54;97037.38;;;10.34
73662;BMP280;61956;52.540;13.382;2023-03-22T01:59:33;96659.97;;;10.31
73662;BMP280;61956;52.540;13.382;2023-03-22T02:02:13;96294.78;;;10.27
73662;BMP280;61956;52.540;13.382;2023-03-22T02:04:58;95643.91;;;10.21
73662;BMP280;61956;52.540;13.382;2023-03-22T02:07:31;95769.22;;;10.20
73662;BMP280;61956;52.540;13.382;2023-03-22T02:10:01;96038.06;;;10.22
73662;BMP280;61956;52.540;13.382;2023-03-22T02:12:51;96693.09;;;10.25
73662;BMP280;61956;52.540;13.382;2023-03-22T02:15:47;95924.50;;;10.20
73662;BMP280;61956;52.540;13.382;2023-03-22T02:18:57;95542.91;;;10.14
73662;BMP280;61956;52.540;13.382;2023-03-22T02:25:22;96183.25;;;10.16
73662;BMP280;61956;52.540;13.382;2023-03-22T02:28:29;95963.59;;;10.15
73662;BMP280;61956;52.540;13.382;2023-03-22T02:31:25;95524.75;;;10.10
73662;BMP280;61956;52.540;13.382;2023-03-22T02:34:39;95578.31;;;10.10
73662;BMP280;61956;52.540;13.382;2023-03-22T02:38:00;95465.94;;;10.07
73662;BMP280;61956;52.540;13.382;2023-03-22T02:40:59;95886.22;;;10.10
73662;BMP280;61956;52.540;13.382;2023-03-22T02:43:41;95574.59;;;10.07
73662;BMP280;61956;52.540;13.382;2023-03-22T02:46:23;95324.34;;;10.04
73662;BMP280;61956;52.540;13.382;2023-03-22T02:49:02;94868.31;;;10.00
73662;BMP280;61956;52.540;13.382;2023-03-22T02:51:41;95479.91;;;10.03
73662;BMP280;61956;52.540;13.382;2023-03-22T02:54:19;95648.84;;;10.03
73662;BMP280;61956;52.540;13.382;2023-03-22T02:57:01;95598.16;;;10.02
73662;BMP280;61956;52.540;13.382;2023-03-22T02:59:36;95832.53;;;10.03
73662;BMP280;61956;52.540;13.382;2023-03-22T03:02:12;96002.19;;;10.04
73662;BMP280;61956;52.540;13.382;2023-03-22T03:04:47;95732.69;;;10.02
73662;BMP280;61956;52.540;13.382;2023-03-22T03:07:21;95887.59;;;10.04
73662;BMP280;61956;52.540;13.382;2023-03-22T03:09:55;95210.47;;;9.97
73662;BMP280;61956;52.540;13.382;2023-03-22T03:12:27;94320.91;;;9.90
73662;BMP280;61956;52.540;13.382;2023-03-22T03:14:56;94206.06;;;9.87
73662;BMP280;61956;52.540;13.382;2023-03-22T03:17:39;94580.19;;;9.87
73662;BMP280;61956;52.540;13.382;2023-03-22T03:20:25;94307.63;;;9.84
73662;BMP280;61956;52.540;13.382;2023-03-22T03:23:12;93903.31;;;9.82
73662;BMP280;61956;52.540;13.382;2023-03-22T03:25:56;93438.97;;;9.75
73662;BMP280;61956;52.540;13.382;2023-03-22T03:28:44;93378.50;;;9.73
73662;BMP280;61956;52.540;13.382;2023-03-22T03:31:26;93236.06;;;9.70
73662;BMP280;61956;52.540;13.382;2023-03-22T03:34:09;93393.31;;;9.68
73662;BMP280;61956;52.540;13.382;2023-03-22T03:36:49;94533.69;;;9.76
73662;BMP280;61956;52.540;13.382;2023-03-22T03:39:23;95213.31;;;9.81
73662;BMP280;61956;52.540;13.382;2023-03-22T03:41:57;95568.72;;;9.84
73662;BMP280;61956;52.540;13.382;2023-03-22T03:44:31;95635.59;;;9.85
73662;BMP280;61956;52.540;13.382;2023-03-22T03:47:04;95537.69;;;9.84
73662;BMP280;61956;52.540;13.382;2023-03-22T03:49:36;94888.59;;;9.80
73662;BMP280;61956;52.540;13.382;2023-03-22T03:52:06;94285.16;;;9.74
73662;BMP280;61956;52.540;13.382;2023-03-22T03:54:36;94978.72;;;9.78
73662;BMP280;61956;52.540;13.382;2023-03-22T03:57:09;95690.63;;;9.82
73662;BMP280;61956;52.540;13.382;2023-03-22T03:59:41;96471.25;;;9.89
73662;BMP280;61956;52.540;13.382;2023-03-22T04:02:20;96472.75;;;9.90
73662;BMP280;61956;52.540;13.382;2023-03-22T04:04:53;96350.41;;;9.89
73662;BMP280;61956;52.540;13.382;2023-03-22T04:07:23;96442.78;;;9.89
73662;BMP280;61956;52.540;13.382;2023-03-22T04:09:52;95536.59;;;9.85
73662;BMP280;61956;52.540;13.382;2023-03-22T04:12:26;95824.41;;;9.85
73662;BMP280;61956;52.540;13.382;2023-03-22T04:15:28;95924.22;;;9.86
73662;BMP280;61956;52.540;13.382;2023-03-22T04:18:01;96111.22;;;9.87
73662;BMP280;61956;52.540;13.382;2023-03-22T04:20:31;96558.13;;;9.90
73662;BMP280;61956;52.540;13.382;2023-03-22T04:23:01;96215.13;;;9.89
73662;BMP280;61956;52.540;13.382;2023-03-22T04:25:30;96110.47;;;9.86
73662;BMP280;61956;52.540;13.382;2023-03-22T04:28:06;96317.88;;;9.88
73662;BMP280;61956;52.540;13.382;2023-03-22T04:30:41;96858.72;;;9.92
73662;BMP280;61956;52.540;13.382;2023-03-22T04:33:29;96671.69;;;9.91
73662;BMP280;61956;52.540;13.382;2023-03-22T04:36:31;96548.53;;;9.90
73662;BMP280;61956;52.540;13.382;2023-03-22T04:39:30;96191.41;;;9.87
73662;BMP280;61956;52.540;13.382;2023-03-22T04:42:25;96075.31;;;9.85
73662;BMP280;61956;52.540;13.382;2023-03-22T04:45:11;96074.56;;;9.85
73662;BMP280;61956;52.540;13.382;2023-03-22T04:47:47;96036.88;;;9.84
73662;BMP280;61956;52.540;13.382;2023-03-22T04:50:17;96595.00;;;9.87
73662;BMP280;61956;52.540;13.382;2023-03-22T04:52:54;96579.47;;;9.87
73662;BMP280;61956;52.540;13.382;2023-03-22T04:55:24;96386.53;;;9.86
73662;BMP280;61956;52.540;13.382;2023-03-22T04:57:54;96476.75;;;9.87
73662;BMP280;61956;52.540;13.382;2023-03-22T05:00:24;96239.38;;;9.84
73662;BMP280;61956;52.540;13.382;2023-03-22T05:02:58;96208.34;;;9.84
73662;BMP280;61956;52.540;13.382;2023-03-22T05:05:35;96390.19;;;9.85
73662;BMP280;61956;52.540;13.382;2023-03-22T05:08:05;96504.75;;;9.85
73662;BMP280;61956;52.540;13.382;2023-03-22T05:10:38;97279.06;;;9.91
73662;BMP280;61956;52.540;13.382;2023-03-22T05:13:07;97465.06;;;9.92
73662;BMP280;61956;52.540;13.382;2023-03-22T05:15:43;96637.16;;;9.87
73662;BMP280;61956;52.540;13.382;2023-03-22T05:18:20;96945.53;;;9.89
73662;BMP280;61956;52.540;13.382;2023-03-22T05:20:54;97078.25;;;9.90
73662;BMP280;61956;52.540;13.382;2023-03-22T05:23:24;96989.22;;;9.91
73662;BMP280;61956;52.540;13.382;2023-03-22T05:25:57;97671.88;;;9.94
73662;BMP280;61956;52.540;13.382;2023-03-22T05:28:27;98021.25;;;9.99
73662;BMP280;61956;52.540;13.382;2023-03-22T05:31:08;97945.41;;;9.99
73662;BMP280;61956;52.540;13.382;2023-03-22T05:33:54;97931.72;;;9.98
73662;BMP280;61956;52.540;13.382;2023-03-22T05:36:27;97513.66;;;9.95
73662;BMP280;61956;52.540;13.382;2023-03-22T05:39:16;97659.41;;;9.96
73662;BMP280;61956;52.540;13.382;2023-03-22T05:41:46;97404.19;;;9.95
73662;BMP280;61956;52.540;13.382;2023-03-22T05:44:15;97920.56;;;9.98
73662;BMP280;61956;52.540;13.382;2023-03-22T05:46:54;98222.91;;;10.01
73662;BMP280;61956;52.540;13.382;2023-03-22T05:49:35;98566.00;;;10.03
73662;BMP280;61956;52.540;13.382;2023-03-22T05:52:05;98020.97;;;10.01
73662;BMP280;61956;52.540;13.382;2023-03-22T05:54:50;97871.09;;;9.99
73662;BMP280;61956;52.540;13.382;2023-03-22T05:57:20;97952.84;;;10.00
73662;BMP280;61956;52.540;13.382;2023-03-22T05:59:52;97902.16;;;9.99
73662;BMP280;61956;52.540;13.382;2023-03-22T06:02:27;98409.84;;;10.03
73662;BMP280;61956;52.540;13.382;2023-03-22T06:05:02;98530.53;;;10.04
73662;BMP280;61956;52.540;13.382;2023-03-22T06:07:32;99059.63;;;10.09
73662;BMP280;61956;52.540;13.382;2023-03-22T06:10:14;99305.47;;;10.11
73662;BMP280;61956;52.540;13.382;2023-03-22T06:12:45;99437.88;;;10.14
73662;BMP280;61956;52.540;13.382;2023-03-22T06:15:22;98996.16;;;10.12
73662;BMP280;61956;52.540;13.382;2023-03-22T06:18:01;99028.81;;;10.13
73662;BMP280;61956;52.540;13.382;2023-03-22T06:20:40;99179.84;;;10.13
73662;BMP280;61956;52.540;13.382;2023-03-22T06:23:15;99487.66;;;10.16
73662;BMP280;61956;52.540;13.382;2023-03-22T06:25:46;99317.41;;;10.17
73662;BMP280;61956;52.540;13.382;2023-03-22T06:28:16;99864.47;;;10.21
73662;BMP280;61956;52.540;13.382;2023-03-22T06:30:51;100170.59;;;10.24
73662;BMP280;61956;52.540;13.382;2023-03-22T06:33:38;99832.09;;;10.23
73662;BMP280;61956;52.540;13.382;2023-03-22T06:36:30;100199.69;;;10.26
73662;BMP280;61956;52.540;13.382;2023-03-22T06:39:26;100434.31;;;10.29
73662;BMP280;61956;52.540;13.382;2023-03-22T06:41:55;100860.66;;;10.33
73662;BMP280;61956;52.540;13.382;2023-03-22T06:44:25;100808.56;;;10.34
73662;BMP280;61956;52.540;13.382;2023-03-22T06:47:15;100790.19;;;10.36
73662;BMP280;61956;52.540;13.382;2023-03-22T06:49:56;100902.28;;;10.38
73662;BMP280;61956;52.540;13.382;2023-03-22T06:52:43;101240.00;;;10.40
73662;BMP280;61956;52.540;13.382;2023-03-22T06:55:12;101553.22;;;10.45
73662;BMP280;61956;52.540;13.382;2023-03-22T06:57:41;101996.28;;;10.49
73662;BMP280;61956;52.540;13.382;2023-03-22T07:00:12;102384.81;;;10.55
73662;BMP280;61956;52.540;13.382;2023-03-22T07:02:42;102566.13;;;10.58
73662;BMP280;61956;52.540;13.382;2023-03-22T07:05:22;103224.00;;;10.64
73662;BMP280;61956;52.540;13.382;2023-03-22T07:07:54;103459.81;;;10.69
73662;BMP280;61956;52.540;13.382;2023-03-22T07:10:25;103674.09;;;10.73
73662;BMP280;61956;52.540;13.382;2023-03-22T07:12:55;103790.69;;;10.76
73662;BMP280;61956;52.540;13.382;2023-03-22T07:15:26;104331.13;;;10.84
73662;BMP280;61956;52.540;13.382;2023-03-22T07:18:12;103804.69;;;10.83
73662;BMP280;61956;52.540;13.382;2023-03-22T07:20:41;103561.50;;;10.82
73662;BMP280;61956;52.540;13.382;2023-03-22T07:23:13;104173.97;;;10.88
73662;BMP280;61956;52.540;13.382;2023-03-22T07:25:48;105011.81;;;10.97
73662;BMP280;61956;52.540;13.382;2023-03-22T07:28:24;106139.41;;;11.09
73662;BMP280;61956;52.540;13.382;2023-03-22T07:30:59;106022.09;;;11.13
73662;BMP280;61956;52.540;13.382;2023-03-22T07:33:39;105828.59;;;11.16
73662;BMP280;61956;52.540;13.382;2023-03-22T07:36:09;105716.53;;;11.19
73662;BMP280;61956;52.540;13.382;2023-03-22T07:38:41;105291.88;;;11.17
73662;BMP280;61956;52.540;13.382;2023-03-22T07:41:16;105908.72;;;11.24
73662;BMP280;61956;52.540;13.382;2023-03-22T07:43:54;107539.50;;;11.41
73662;BMP280;61956;52.540;13.382;2023-03-22T07:46:23;108037.38;;;11.50
73662;BMP280;61956;52.540;13.382;2023-03-22T07:49:10;108512.94;;;11.57
73662;BMP280;61956;52.540;13.382;2023-03-22T07:52:02;108828.00;;;11.67
73662;BMP280;61956;52.540;13.382;2023-03-22T07:54:35;109112.78;;;11.75
73662;BMP280;61956;52.540;13.382;2023-03-22T07:57:06;110076.38;;;11.86
73662;BMP280;61956;52.540;13.382;2023-03-22T07:59:50;111945.53;;;12.08
73662;BMP280;61956;52.540;13.382;2023-03-22T08:02:23;111197.47;;;12.15
73662;BMP280;61956;52.540;13.382;2023-03-22T08:04:54;110529.41;;;12.15
73662;BMP280;61956;52.540;13.382;2023-03-22T08:07:41;110953.97;;;12.24
73662;BMP280;61956;52.540;13.382;2023-03-22T08:10:16;110870.50;;;12.30
73662;BMP280;61956;52.540;13.382;2023-03-22T08:12:46;111089.03;;;12.39
73662;BMP280;61956;52.540;13.382;2023-03-22T08:15:21;112177.44;;;12.52
73662;BMP280;61956;52.540;13.382;2023-03-22T08:17:50;114139.59;;;12.75
73662;BMP280;61956;52.540;13.382;2023-03-22T08:20:35;115038.28;;;12.97
73662;BMP280;61956;52.540;13.382;2023-03-22T08:23:09;112391.00;;;12.88
73662;BMP280;61956;52.540;13.382;2023-03-22T08:26:04;110223.09;;;12.73
73662;BMP280;61956;52.540;13.382;2023-03-22T08:28:33;110125.59;;;12.72
73662;BMP280;61956;52.540;13.382;2023-03-22T08:31:09;109979.38;;;12.72
73662;BMP280;61956;52.540;13.382;2023-03-22T08:33:41;110443.34;;;12.78
73662;BMP280;61956;52.540;13.382;2023-03-22T08:36:13;110329.28;;;12.80
73662;BMP280;61956;52.540;13.382;2023-03-22T08:38:54;110376.31;;;12.83
73662;BMP280;61956;52.540;13.382;2023-03-22T08:41:37;110382.41;;;12.88
73662;BMP280;61956;52.540;13.382;2023-03-22T08:44:07;110398.06;;;12.90
73662;BMP280;61956;52.540;13.382;2023-03-22T08:46:37;111724.81;;;13.04
73662;BMP280;61956;52.540;13.382;2023-03-22T08:49:06;112470.28;;;13.15
73662;BMP280;61956;52.540;13.382;2023-03-22T08:51:40;112586.50;;;13.23
73662;BMP280;61956;52.540;13.382;2023-03-22T08:54:26;112582.34;;;13.31
73662;BMP280;61956;52.540;13.382;2023-03-22T08:57:03;111509.13;;;13.29
73662;BMP280;61956;52.540;13.382;2023-03-22T08:59:44;111681.75;;;13.34
73662;BMP280;61956;52.540;13.382;2023-03-22T09:02:21;112800.81;;;13.44
73662;BMP280;61956;52.540;13.382;2023-03-22T09:04:52;112636.16;;;13.50
73662;BMP280;61956;52.540;13.382;2023-03-22T09:07:22;113016.88;;;13.60
73662;BMP280;61956;52.540;13.382;2023-03-22T09:10:15;112328.50;;;13.60
73662;BMP280;61956;52.540;13.382;2023-03-22T09:12:49;113238.97;;;13.72
73662;BMP280;61956;52.540;13.382;2023-03-22T09:15:19;114886.06;;;13.94
73662;BMP280;61956;52.540;13.382;2023-03-22T09:18:03;113799.63;;;13.96
73662;BMP280;61956;52.540;13.382;2023-03-22T09:20:32;115035.78;;;14.12
73662;BMP280;61956;52.540;13.382;2023-03-22T09:23:04;114949.75;;;14.19
73662;BMP280;61956;52.540;13.382;2023-03-22T09:25:34;115763.16;;;14.37
73662;BMP280;61956;52.540;13.382;2023-03-22T09:28:06;116044.75;;;14.48
73662;BMP280;61956;52.540;13.382;2023-03-22T09:30:35;114742.41;;;14.44
73662;BMP280;61956;52.540;13.382;2023-03-22T09:33:08;115178.53;;;14.55
73662;BMP280;61956;52.540;13.382;2023-03-22T09:35:40;113414.81;;;14.47
73662;BMP280;61956;52.540;13.382;2023-03-22T09:38:11;114278.69;;;14.53
73662;BMP280;61956;52.540;13.382;2023-03-22T09:40:49;116216.13;;;14.79
73662;BMP280;61956;52.540;13.382;2023-03-22T09:43:33;115596.22;;;14.86
73662;BMP280;61956;52.540;13.382;2023-03-22T09:46:11;114971.56;;;14.88
73662;BMP280;61956;52.540;13.382;2023-03-22T09:48:43;115014.84;;;14.94
73662;BMP280;61956;52.540;13.382;2023-03-22T09:51:29;114626.44;;;14.96
73662;BMP280;61956;52.540;13.382;2023-03-22T09:54:12;113258.94;;;14.87
73662;BMP280;61956;52.540;13.382;2023-03-22T09:56:48;114759.94;;;15.04
73662;BMP280;61956;52.540;13.382;2023-03-22T09:59:32;116013.09;;;15.24
73662;BMP280;61956;52.540;13.382;2023-03-22T10:02:23;117050.41;;;15.45
73662;BMP280;61956;52.540;13.382;2023-03-22T10:05:12;118740.06;;;15.79
73662;BMP280;61956;52.540;13.382;2023-03-22T10:08:00;118167.09;;;15.94
73662;BMP280;61956;52.540;13.382;2023-03-22T10:10:41;117441.31;;;16.00
73662;BMP280;61956;52.540;13.382;2023-03-22T10:13:15;116675.44;;;15.98
73662;BMP280;61956;52.540;13.382;2023-03-22T10:15:52;116925.28;;;16.07
73662;BMP280;61956;52.540;13.382;2023-03-22T10:18:25;116823.56;;;16.18
73662;BMP280;61956;52.540;13.382;2023-03-22T10:21:01;116559.28;;;16.26
73662;BMP280;61956;52.540;13.382;2023-03-22T10:23:37;115579.44;;;16.25
73662;BMP280;61956;52.540;13.382;2023-03-22T10:26:17;114921.47;;;16.21
73662;BMP280;61956;52.540;13.382;2023-03-22T10:28:56;114345.53;;;16.22
73662;BMP280;61956;52.540;13.382;2023-03-22T10:31:32;114762.88;;;16.23
73662;BMP280;61956;52.540;13.382;2023-03-22T10:34:05;115537.22;;;16.37
73662;BMP280;61956;52.540;13.382;2023-03-22T10:36:39;116281.44;;;16.53
73662;BMP280;61956;52.540;13.382;2023-03-22T10:39:12;115862.44;;;16.60
73662;BMP280;61956;52.540;13.382;2023-03-22T10:41:52;114740.69;;;16.52
73662;BMP280;61956;52.540;13.382;2023-03-22T10:44:24;114831.31;;;16.57
73662;BMP280;61956;52.540;13.382;2023-03-22T10:47:00;114811.22;;;16.59
73662;BMP280;61956;52.540;13.382;2023-03-22T10:49:36;115442.06;;;16.74
73662;BMP280;61956;52.540;13.382;2023-03-22T10:52:19;114262.50;;;16.69
73662;BMP280;61956;52.540;13.382;2023-03-22T10:55:03;112796.69;;;16.55
73662;BMP280;61956;52.540;13.382;2023-03-22T10:57:36;112555.59;;;16.53
73662;BMP280;61956;52.540;13.382;2023-03-22T11:00:09;112535.44;;;16.52
73662;BMP280;61956;52.540;13.382;2023-03-22T11:02:50;112231.25;;;16.49
73662;BMP280;61956;52.540;13.382;2023-03-22T11:05:24;113284.31;;;16.62
73662;BMP280;61956;52.540;13.382;2023-03-22T11:07:55;112781.84;;;16.57
73662;BMP280;61956;52.540;13.382;2023-03-22T11:10:28;112887.13;;;16.62
73662;BMP280;61956;52.540;13.382;2023-03-22T11:13:15;112335.66;;;16.59
73662;BMP280;61956;52.540;13.382;2023-03-22T11:15:52;113334.47;;;16.70
73662;BMP280;61956;52.540;13.382;2023-03-22T11:18:32;113339.06;;;16.77
73662;BMP280;61956;52.540;13.382;2023-03-22T11:21:06;113147.00;;;16.77
73662;BMP280;61956;52.540;13.382;2023-03-22T11:23:41;113175.19;;;16.82
73662;BMP280;61956;52.540;13.382;2023-03-22T11:26:29;112857.63;;;16.80
73662;BMP280;61956;52.540;13.382;2023-03-22T11:29:04;112867.31;;;16.82
73662;BMP280;61956;52.540;13.382;2023-03-22T11:31:55;112161.41;;;16.79
73662;BMP280;61956;52.540;13.382;2023-03-22T11:34:29;110953.59;;;16.65
73662;BMP280;61956;52.540;13.382;2023-03-22T11:36:59;111542.47;;;16.68
73662;BMP280;61956;52.540;13.382;2023-03-22T11:39:29;111848.41;;;16.74
73662;BMP280;61956;52.540;13.382;2023-03-22T11:42:00;112749.84;;;16.84
73662;BMP280;61956;52.540;13.382;2023-03-22T11:44:34;113243.88;;;16.93
73662;BMP280;61956;52.540;13.382;2023-03-22T11:47:07;113218.56;;;16.98
73662;BMP280;61956;52.540;13.382;2023-03-22T11:49:44;113867.47;;;17.13
73662;BMP280;61956;52.540;13.382;2023-03-22T11:52:17;113690.25;;;17.17
73662;BMP280;61956;52.540;13.382;2023-03-22T11:54:51;112217.69;;;17.05
73662;BMP280;61956;52.540;13.382;2023-03-22T11:57:25;112463.28;;;17.04
73662;BMP280;61956;52.540;13.382;2023-03-22T12:00:00;112258.94;;;17.08
73662;BMP280;61956;52.540;13.382;2023-03-22T12:02:40;113240.06;;;17.18
73662;BMP280;61956;52.540;13.382;2023-03-22T12:05:19;112681.06;;;17.21
73662;BMP280;61956;52.540;13.382;2023-03-22T12:07:55;114015.75;;;17.37
73662;BMP280;61956;52.540;13.382;2023-03-22T12:10:31;113940.56;;;17.47
73662;BMP280;61956;52.540;13.382;2023-03-22T12:13:11;113570.91;;;17.49
73662;BMP280;61956;52.540;13.382;2023-03-22T12:15:49;111939.69;;;17.30
73662;BMP280;61956;52.540;13.382;2023-03-22T12:18:25;112460.94;;;17.33
73662;BMP280;61956;52.540;13.382;2023-03-22T12:21:03;113115.06;;;17.46
73662;BMP280;61956;52.540;13.382;2023-03-22T12:23:33;114399.72;;;17.64
73662;BMP280;61956;52.540;13.382;2023-03-22T12:26:05;114439.75;;;17.76
73662;BMP280;61956;52.540;13.382;2023-03-22T12:28:45;112917.84;;;17.65
73662;BMP280;61956;52.540;13.382;2023-03-22T12:31:21;113388.75;;;17.72
73662;BMP280;61956;52.540;13.382;2023-03-22T12:33:57;113410.78;;;17.75
73662;BMP280;61956;52.540;13.382;2023-03-22T12:36:36;112119.66;;;17.65
73662;BMP280;61956;52.540;13.382;2023-03-22T12:39:18;113493.50;;;17.80
73662;BMP280;61956;52.540;13.382;2023-03-22T12:41:58;113197.50;;;17.84
73662;BMP280;61956;52.540;13.382;2023-03-22T12:44:31;114144.41;;;18.01
73662;BMP280;61956;52.540;13.382;2023-03-22T12:47:06;113321.66;;;17.98
73662;BMP280;61956;52.540;13.382;2023-03-22T12:49:47;112768.00;;;17.95
73662;BMP280;61956;52.540;13.382;2023-03-22T12:52:30;112625.66;;;17.92
73662;BMP280;61956;52.540;13.382;2023-03-22T12:55:05;113581.94;;;18.05
73662;BMP280;61956;52.540;13.382;2023-03-22T12:57:35;114208.44;;;18.23
73662;BMP280;61956;52.540;13.382;2023-03-22T13:00:12;113087.25;;;18.15
73662;BMP280;61956;52.540;13.382;2023-03-22T13:02:47;111115.81;;;17.97
73662;BMP280;61956;52.540;13.382;2023-03-22T13:05:26;108598.72;;;17.60
73662;BMP280;61956;52.540;13.382;2023-03-22T13:07:59;110286.06;;;17.69
73662;BMP280;61956;52.540;13.382;2023-03-22T13:10:58;110542.06;;;17.77
73662;BMP280;61956;52.540;13.382;2023-03-22T13:13:39;111087.13;;;17.80
73662;BMP280;61956;52.540;13.382;2023-03-22T13:16:15;111634.91;;;17.89
73662;BMP280;61956;52.540;13.382;2023-03-22T13:19:01;112446.53;;;18.03
73662;BMP280;61956;52.540;13.382;2023-03-22T13:21:47;111141.28;;;17.96
73662;BMP280;61956;52.540;13.382;2023-03-22T13:24:23;109223.38;;;17.74
73662;BMP280;61956;52.540;13.382;2023-03-22T13:26:53;109073.00;;;17.62
73662;BMP280;61956;52.540;13.382;2023-03-22T13:29:33;110294.75;;;17.71
73662;BMP280;61956;52.540;13.382;2023-03-22T13:32:25;111692.88;;;17.89
73662;BMP280;61956;52.540;13.382;2023-03-22T13:34:58;111107.19;;;17.88
73662;BMP280;61956;52.540;13.382;2023-03-22T13:37:31;112559.88;;;18.07
73662;BMP280;61956;52.540;13.382;2023-03-22T13:40:11;111684.84;;;18.04
73662;BMP280;61956;52.540;13.382;2023-03-22T13:42:41;110739.13;;;17.97
73662;BMP280;61956;52.540;13.382;2023-03-22T13:45:28;110018.69;;;17.88
73662;BMP280;61956;52.540;13.382;2023-03-22T13:48:08;109216.28;;;17.76
73662;BMP280;61956;52.540;13.382;2023-03-22T13:50:40;109754.97;;;17.75
73662;BMP280;61956;52.540;13.382;2023-03-22T13:53:15;109063.94;;;17.70
73662;BMP280;61956;52.540;13.382;2023-03-22T13:56:02;109478.78;;;17.71
73662;BMP280;61956;52.540;13.382;2023-03-22T13:58:36;109414.78;;;17.70
73662;BMP280;61956;52.540;13.382;2023-03-22T14:01:25;109405.09;;;17.71
73662;BMP280;61956;52.540;13.382;2023-03-22T14:04:01;109398.91;;;17.72
73662;BMP280;61956;52.540;13.382;2023-03-22T14:06:40;110391.88;;;17.81
73662;BMP280;61956;52.540;13.382;2023-03-22T14:09:26;112347.25;;;18.08
73662;BMP280;61956;52.540;13.382;2023-03-22T14:12:04;113918.69;;;18.39
73662;BMP280;61956;52.540;13.382;2023-03-22T14:14:42;113053.34;;;18.44
73662;BMP280;61956;52.540;13.382;2023-03-22T14:17:19;112815.09;;;18.47
73662;BMP280;61956;52.540;13.382;2023-03-22T14:19:58;114099.00;;;18.70
73662;BMP280;61956;52.540;13.382;2023-03-22T14:22:32;113995.47;;;18.82
73662;BMP280;61956;52.540;13.382;2023-03-22T14:25:06;113485.03;;;18.83
73662;BMP280;61956;52.540;13.382;2023-03-22T14:27:44;112571.69;;;18.80
73662;BMP280;61956;52.540;13.382;2023-03-22T14:30:28;112320.97;;;18.80
73662;BMP280;61956;52.540;13.382;2023-03-22T14:33:15;112075.56;;;18.74
73662;BMP280;61956;52.540;13.382;2023-03-22T14:35:48;112172.34;;;18.76
73662;BMP280;61956;52.540;13.382;2023-03-22T14:38:26;111020.50;;;18.67
73662;BMP280;61956;52.540;13.382;2023-03-22T14:41:11;110067.41;;;18.53
73662;BMP280;61956;52.540;13.382;2023-03-22T14:43:46;109730.38;;;18.44
73662;BMP280;61956;52.540;13.382;2023-03-22T14:46:19;108933.56;;;18.32
73662;BMP280;61956;52.540;13.382;2023-03-22T14:48:51;108388.22;;;18.21